Time;durP1;ratioP1;P1;durP2;ratioP2;P2;SDS_P1;SDS_P2;PMS_P1;PMS_P2;Temp;Humidity;BMP_temperature;BMP_pressure;BME280_temperature;BME280_humidity;BME280_pressure;Samples;Min_cycle;Max_cycle;Signal;HPM_P1;HPM_P2
2021/03/28 00:01:24;;;;;;;22.20;5.50;;;5.10;99.90;;;;;;5030982;28;20029;-49
2021/03/28 00:03:55;;;;;;;13.85;5.05;;;5.10;99.90;;;;;;5013936;28;20029;-51
2021/03/28 00:06:28;;;;;;;17.60;5.85;;;5.20;99.90;;;;;;5030345;28;20093;-49
2021/03/28 00:09:31;;;;;;;12.50;4.53;;;5.10;99.90;;;;;;5030827;28;20029;-52
2021/03/28 00:12:03;;;;;;;14.20;4.47;;;5.10;99.90;;;;;;5030839;28;20060;-49
2021/03/28 00:14:35;;;;;;;35.47;7.03;;;5.20;99.90;;;;;;5029942;28;20076;-50
2021/03/28 00:17:21;;;;;;;16.60;4.63;;;5.30;99.90;;;;;;5030820;28;20084;-51
2021/03/28 00:20:06;;;;;;;26.63;4.93;;;5.30;99.90;;;;;;5029971;28;20017;-51
2021/03/28 00:22:39;;;;;;;13.52;4.57;;;5.40;99.90;;;;;;5026666;28;20044;-52
2021/03/28 00:25:33;;;;;;;15.02;3.90;;;5.50;99.90;;;;;;5030954;28;20116;-54
2021/03/28 00:28:01;;;;;;;15.82;3.88;;;5.60;99.90;;;;;;5030575;28;20075;-50
2021/03/28 00:30:38;;;;;;;13.30;4.57;;;5.60;99.90;;;;;;5029700;28;20026;-52
2021/03/28 00:33:09;;;;;;;17.95;4.68;;;5.70;99.90;;;;;;5033023;28;20040;-52
2021/03/28 00:35:47;;;;;;;24.42;4.95;;;5.80;99.90;;;;;;5031573;28;20053;-53
2021/03/28 00:38:18;;;;;;;23.05;5.15;;;5.90;99.90;;;;;;5036059;28;20027;-50
2021/03/28 00:40:45;;;;;;;12.52;3.88;;;5.90;99.90;;;;;;5029668;28;20043;-50
2021/03/28 00:43:20;;;;;;;22.42;4.28;;;6.00;99.90;;;;;;5031452;28;20036;-52
2021/03/28 00:45:53;;;;;;;22.48;4.57;;;6.00;99.90;;;;;;5030494;28;20026;-50
2021/03/28 00:48:21;;;;;;;20.65;4.30;;;6.10;99.90;;;;;;5028223;28;20026;-52
2021/03/28 00:50:51;;;;;;;14.55;4.10;;;6.20;99.90;;;;;;5030005;28;20021;-53
2021/03/28 00:53:35;;;;;;;16.55;3.88;;;6.20;99.90;;;;;;5030331;28;20033;-53
2021/03/28 00:56:07;;;;;;;19.05;4.60;;;6.30;99.90;;;;;;5030958;28;20034;-51
2021/03/28 00:59:00;;;;;;;14.85;3.75;;;6.40;99.90;;;;;;5029813;28;20399;-51
2021/03/28 01:01:55;;;;;;;14.32;3.45;;;6.40;99.90;;;;;;5028926;28;20549;-51
2021/03/28 01:04:42;;;;;;;21.83;4.00;;;6.50;99.90;;;;;;5033933;28;20075;-54
2021/03/28 01:07:32;;;;;;;16.08;3.47;;;6.50;99.90;;;;;;5029065;28;20053;-53
2021/03/28 01:10:34;;;;;;;16.48;4.25;;;6.50;99.90;;;;;;5029619;28;20022;-52
2021/03/28 01:13:34;;;;;;;19.58;4.05;;;6.60;99.90;;;;;;5029369;28;20029;-54
2021/03/28 01:16:17;;;;;;;17.10;3.30;;;6.60;99.90;;;;;;5030107;28;20032;-49
2021/03/28 01:19:00;;;;;;;13.93;2.72;;;6.70;99.90;;;;;;5033859;28;20021;-49
2021/03/28 01:21:42;;;;;;;16.25;3.30;;;6.80;99.90;;;;;;5028777;28;20044;-51
2021/03/28 01:24:07;;;;;;;14.30;3.45;;;6.90;99.90;;;;;;5030228;28;20048;-55
2021/03/28 01:26:41;;;;;;;17.83;3.05;;;6.90;99.90;;;;;;5030821;28;20021;-55
2021/03/28 01:29:28;;;;;;;16.08;4.32;;;6.90;99.90;;;;;;5027027;28;20510;-53
2021/03/28 01:32:00;;;;;;;16.80;3.25;;;6.90;99.90;;;;;;5027593;28;20136;-54
2021/03/28 01:34:32;;;;;;;16.83;3.38;;;7.00;99.90;;;;;;5028637;28;20033;-52
2021/03/28 01:37:13;;;;;;;11.10;3.20;;;7.10;99.90;;;;;;5029748;28;20052;-51
2021/03/28 01:39:58;;;;;;;21.33;3.33;;;7.10;99.90;;;;;;5028949;28;20034;-50
2021/03/28 01:42:35;;;;;;;8.40;2.17;;;7.10;99.90;;;;;;5027464;28;20033;-51
2021/03/28 01:45:22;;;;;;;17.23;2.92;;;7.20;99.90;;;;;;5026008;28;20026;-49
2021/03/28 01:48:19;;;;;;;12.45;2.03;;;7.20;99.90;;;;;;5025297;28;20017;-51
2021/03/28 01:51:03;;;;;;;16.67;3.13;;;7.30;99.90;;;;;;5012917;28;20450;-53
2021/03/28 01:54:00;;;;;;;19.40;4.07;;;7.20;99.90;;;;;;5029435;28;20026;-50
2021/03/28 01:56:51;;;;;;;21.23;2.90;;;7.20;99.90;;;;;;5029148;28;20040;-52
2021/03/28 01:59:36;;;;;;;17.65;2.67;;;7.20;99.90;;;;;;5028925;28;20029;-50
2021/03/28 02:02:41;;;;;;;11.20;2.67;;;7.20;99.90;;;;;;5026577;28;20036;-49
2021/03/28 02:05:30;;;;;;;;;;;7.20;99.90;;;;;;5028391;28;20428;-52
2021/03/28 02:08:09;;;;;;;11.93;2.50;;;7.20;99.90;;;;;;5028640;28;20359;-50
2021/03/28 02:10:46;;;;;;;12.05;3.38;;;7.20;99.90;;;;;;5029203;28;20052;-54
2021/03/28 02:13:38;;;;;;;12.00;2.83;;;7.20;99.90;;;;;;5028351;28;20108;-52
2021/03/28 02:16:18;;;;;;;23.73;3.47;;;7.10;99.90;;;;;;5029268;28;20022;-50
2021/03/28 02:18:57;;;;;;;17.02;3.13;;;7.20;99.90;;;;;;5026898;28;20476;-50
2021/03/28 02:21:28;;;;;;;6.10;2.15;;;7.20;99.90;;;;;;5028485;28;20021;-50
2021/03/28 02:24:09;;;;;;;13.13;2.65;;;7.20;99.90;;;;;;5028094;28;20064;-50
2021/03/28 02:26:47;;;;;;;18.35;3.70;;;7.20;99.90;;;;;;5023225;28;20025;-51
2021/03/28 02:29:29;;;;;;;14.45;2.67;;;7.20;99.90;;;;;;5031415;28;20495;-53
2021/03/28 02:32:30;;;;;;;13.82;2.75;;;7.20;99.90;;;;;;5032669;28;20033;-49
2021/03/28 02:35:27;;;;;;;9.98;2.40;;;7.20;99.90;;;;;;5032093;28;20033;-50
2021/03/28 02:38:33;;;;;;;12.23;2.42;;;7.10;99.90;;;;;;5031964;28;20079;-52
2021/03/28 02:41:08;;;;;;;23.25;3.28;;;7.00;99.90;;;;;;5032237;28;20025;-50
2021/03/28 02:43:38;;;;;;;;;;;7.00;99.90;;;;;;5028513;28;20033;-50
2021/03/28 02:46:24;;;;;;;13.13;2.97;;;6.90;99.90;;;;;;5029799;28;19913;-50
2021/03/28 02:48:55;;;;;;;13.80;3.20;;;6.80;99.90;;;;;;5030854;28;20026;-53
2021/03/28 02:51:28;;;;;;;11.43;2.90;;;6.70;99.90;;;;;;5031401;28;20033;-52
2021/03/28 02:54:37;;;;;;;18.75;3.00;;;6.70;99.90;;;;;;5031658;28;20409;-55
2021/03/28 02:57:27;;;;;;;15.00;2.85;;;6.60;99.90;;;;;;5031914;28;20029;-54
2021/03/28 03:00:34;;;;;;;16.60;2.97;;;6.40;99.90;;;;;;5031815;28;20480;-53
2021/03/28 03:03:22;;;;;;;17.15;2.92;;;6.40;99.90;;;;;;5031425;28;20068;-53
2021/03/28 03:06:25;;;;;;;13.07;2.60;;;6.30;99.90;;;;;;5029930;28;20033;-54
2021/03/28 03:09:07;;;;;;;13.55;3.38;;;6.40;99.90;;;;;;5032516;28;20034;-51
2021/03/28 03:11:51;;;;;;;22.80;5.22;;;6.30;99.90;;;;;;5028357;28;20029;-52
2021/03/28 03:14:24;;;;;;;10.07;3.17;;;6.30;99.90;;;;;;5027655;28;20029;-53
2021/03/28 03:17:11;;;;;;;11.23;2.70;;;6.30;99.90;;;;;;5032258;28;20040;-51
2021/03/28 03:20:08;;;;;;;9.25;2.60;;;6.30;99.90;;;;;;5031407;28;20031;-52
2021/03/28 03:22:52;;;;;;;14.48;3.70;;;6.30;99.90;;;;;;5030356;28;20459;-51
2021/03/28 03:25:31;;;;;;;21.80;3.23;;;6.20;99.90;;;;;;5026785;28;20060;-51
2021/03/28 03:28:26;;;;;;;15.82;3.45;;;6.20;99.90;;;;;;5029878;28;20030;-49
2021/03/28 03:31:10;;;;;;;;;;;6.10;99.90;;;;;;5031424;28;20060;-49
2021/03/28 03:33:35;;;;;;;22.58;3.05;;;6.10;99.90;;;;;;5028758;28;19909;-49
2021/03/28 03:36:38;;;;;;;16.85;3.20;;;6.10;99.90;;;;;;5031366;28;20040;-49
2021/03/28 03:39:42;;;;;;;14.60;2.88;;;6.10;99.90;;;;;;5031277;28;20079;-52
2021/03/28 03:42:41;;;;;;;8.85;2.95;;;6.00;99.90;;;;;;5031588;28;20044;-49
2021/03/28 03:45:44;;;;;;;8.15;2.80;;;6.00;99.90;;;;;;5026950;28;20033;-50
2021/03/28 03:48:09;;;;;;;14.63;2.85;;;6.00;99.90;;;;;;5030081;28;20026;-50
2021/03/28 03:50:43;;;;;;;16.23;3.22;;;6.00;99.90;;;;;;5030980;28;20044;-54
2021/03/28 03:53:30;;;;;;;6.93;2.40;;;6.00;99.90;;;;;;5028624;28;20108;-53
2021/03/28 03:56:24;;;;;;;12.27;2.72;;;6.00;99.90;;;;;;5030623;28;20037;-51
2021/03/28 03:59:11;;;;;;;13.35;2.53;;;6.00;99.90;;;;;;5030234;28;20044;-50
2021/03/28 04:01:56;;;;;;;10.35;2.38;;;6.00;99.90;;;;;;5029696;28;20026;-53
2021/03/28 04:04:34;;;;;;;6.03;2.03;;;6.10;99.90;;;;;;5029246;28;20026;-54
2021/03/28 04:07:09;;;;;;;9.13;2.13;;;6.10;99.90;;;;;;5030342;28;20026;-50
2021/03/28 04:10:10;;;;;;;19.10;2.38;;;6.10;99.90;;;;;;5030534;28;20017;-51
2021/03/28 04:13:06;;;;;;;11.80;2.63;;;6.20;99.90;;;;;;5026682;28;20044;-51
2021/03/28 04:15:52;;;;;;;11.02;2.05;;;6.20;99.90;;;;;;5030434;28;20028;-53
2021/03/28 04:18:42;;;;;;;11.63;2.58;;;6.20;99.90;;;;;;5030457;28;20086;-50
2021/03/28 04:21:41;;;;;;;5.88;1.65;;;6.20;99.90;;;;;;5031094;28;20112;-50
2021/03/28 04:24:23;;;;;;;8.57;2.40;;;6.20;99.90;;;;;;5029648;28;20103;-50
2021/03/28 04:26:58;;;;;;;8.82;2.08;;;6.20;99.90;;;;;;5029893;28;20051;-50
2021/03/28 04:29:24;;;;;;;11.52;2.42;;;6.20;99.90;;;;;;5027516;28;20037;-52
2021/03/28 04:32:18;;;;;;;8.43;2.33;;;6.10;99.90;;;;;;5028725;28;20470;-50
2021/03/28 04:35:15;;;;;;;13.32;2.30;;;6.10;99.90;;;;;;5020208;28;20554;-53
2021/03/28 04:38:19;;;;;;;10.65;2.40;;;6.10;99.90;;;;;;5029994;28;20056;-52
2021/03/28 04:41:17;;;;;;;9.10;2.22;;;6.00;99.90;;;;;;5028484;28;20551;-53
2021/03/28 04:44:14;;;;;;;14.20;3.13;;;6.00;99.90;;;;;;5025216;28;20049;-55
2021/03/28 04:46:52;;;;;;;8.93;2.97;;;6.00;99.90;;;;;;5029742;28;20017;-50
2021/03/28 04:49:55;;;;;;;10.80;3.13;;;6.00;99.90;;;;;;5029921;28;20025;-53
2021/03/28 04:52:54;;;;;;;22.10;2.30;;;6.00;99.90;;;;;;5028689;28;20033;-50
2021/03/28 04:55:38;;;;;;;17.25;2.65;;;6.00;99.90;;;;;;5026243;28;20033;-50
2021/03/28 04:58:36;;;;;;;16.63;2.30;;;6.10;99.90;;;;;;5027452;28;20025;-50
2021/03/28 05:01:34;;;;;;;11.80;2.80;;;6.10;99.90;;;;;;5006748;28;20045;-50
2021/03/28 05:04:12;;;;;;;13.25;2.72;;;6.20;99.90;;;;;;5026327;28;20626;-50
2021/03/28 05:07:04;;;;;;;9.20;2.25;;;6.20;99.90;;;;;;5044599;28;20496;-50
2021/03/28 05:10:05;;;;;;;11.80;2.22;;;6.20;99.90;;;;;;5029359;28;20502;-51
2021/03/28 05:12:33;;;;;;;13.90;2.75;;;6.20;99.90;;;;;;5027653;28;20030;-54
2021/03/28 05:15:31;;;;;;;9.68;2.33;;;6.20;99.90;;;;;;5028860;28;20561;-50
2021/03/28 05:18:20;;;;;;;14.27;3.50;;;6.30;99.90;;;;;;5026792;28;20037;-51
2021/03/28 05:21:09;;;;;;;14.90;3.45;;;6.30;99.90;;;;;;5028679;28;20026;-54
2021/03/28 05:24:09;;;;;;;7.88;2.95;;;6.30;99.90;;;;;;5016724;28;20072;-52
2021/03/28 05:27:10;;;;;;;19.38;3.40;;;6.40;99.90;;;;;;5026061;28;20045;-50
2021/03/28 05:29:47;;;;;;;11.82;3.33;;;6.40;99.90;;;;;;5028755;28;20045;-51
2021/03/28 05:32:51;;;;;;;11.57;2.45;;;6.50;99.90;;;;;;5028550;28;20041;-50
2021/03/28 05:35:25;;;;;;;6.97;2.30;;;6.50;99.90;;;;;;5028640;28;20120;-53
2021/03/28 05:37:57;;;;;;;8.85;2.97;;;6.50;99.90;;;;;;5028536;28;20029;-50
2021/03/28 05:40:58;;;;;;;12.73;2.33;;;6.60;99.90;;;;;;5026016;28;20104;-56
2021/03/28 05:43:23;;;;;;;13.10;3.15;;;6.70;99.90;;;;;;4943906;29;20031;-50
2021/03/28 05:46:34;;;;;;;10.73;3.90;;;6.60;99.90;;;;;;5011183;28;20107;-50
2021/03/28 05:49:18;;;;;;;8.02;2.05;;;6.70;99.90;;;;;;5015562;28;20117;-54
2021/03/28 05:52:20;;;;;;;10.40;2.38;;;6.70;99.90;;;;;;5029786;28;20037;-50
2021/03/28 05:55:20;;;;;;;10.30;2.60;;;6.70;99.90;;;;;;5029766;28;20033;-54
2021/03/28 05:58:13;;;;;;;11.05;2.28;;;6.80;99.90;;;;;;5029358;28;20083;-50
2021/03/28 06:01:16;;;;;;;14.63;2.88;;;6.90;99.90;;;;;;5023155;28;20033;-50
2021/03/28 06:04:14;;;;;;;10.45;2.33;;;6.90;99.90;;;;;;5030175;28;20438;-50
2021/03/28 06:07:01;;;;;;;15.40;2.38;;;7.00;99.90;;;;;;5032452;28;20029;-50
2021/03/28 06:09:50;;;;;;;10.73;2.33;;;7.00;99.90;;;;;;5031313;28;20025;-50
2021/03/28 06:13:04;;;;;;;12.82;3.13;;;7.10;99.90;;;;;;5032219;28;20044;-51
2021/03/28 06:16:14;;;;;;;7.47;2.38;;;7.10;99.90;;;;;;5000833;28;20034;-54
2021/03/28 06:19:17;;;;;;;10.30;2.42;;;7.20;99.90;;;;;;5016963;28;20372;-51
2021/03/28 06:22:20;;;;;;;15.18;3.22;;;7.20;99.90;;;;;;5029887;28;20030;-50
2021/03/28 06:25:03;;;;;;;8.43;1.92;;;7.40;99.90;;;;;;5027509;28;20029;-51
2021/03/28 06:27:49;;;;;;;6.15;2.00;;;7.50;99.90;;;;;;5032265;28;20025;-50
2021/03/28 06:30:33;;;;;;;15.13;2.65;;;7.60;99.90;;;;;;5031366;28;20029;-50
2021/03/28 06:33:26;;;;;;;9.68;2.55;;;7.70;99.90;;;;;;5031462;28;20484;-50
2021/03/28 06:36:16;;;;;;;16.83;2.65;;;7.80;99.90;;;;;;5031155;28;20407;-50
2021/03/28 06:39:23;;;;;;;13.60;2.28;;;7.90;99.90;;;;;;5032008;28;20079;-50
2021/03/28 06:42:03;;;;;;;8.02;2.30;;;8.00;99.90;;;;;;5031938;28;20025;-51
2021/03/28 06:44:56;;;;;;;10.43;2.13;;;8.10;99.90;;;;;;5031574;28;20017;-50
2021/03/28 06:48:21;;;;;;;10.07;2.75;;;8.30;99.90;;;;;;5029818;28;20454;-50
2021/03/28 06:50:58;;;;;;;16.10;2.33;;;8.40;99.90;;;;;;5032817;28;20064;-50
2021/03/28 06:53:36;;;;;;;12.57;2.42;;;8.50;99.90;;;;;;5032101;28;20033;-53
2021/03/28 06:56:16;;;;;;;13.07;2.28;;;8.60;99.90;;;;;;5032347;28;20534;-50
2021/03/28 06:59:03;;;;;;;9.13;2.28;;;8.70;99.90;;;;;;5031807;28;20029;-53
2021/03/28 07:01:47;;;;;;;10.55;2.47;;;8.80;99.90;;;;;;5030018;28;20112;-52
2021/03/28 07:04:40;;;;;;;11.60;2.13;;;8.80;99.90;;;;;;5030923;28;20052;-53
2021/03/28 07:07:43;;;;;;;7.85;2.17;;;8.90;99.90;;;;;;5031977;28;20365;-54
2021/03/28 07:10:30;;;;;;;13.63;2.20;;;9.00;99.90;;;;;;5031065;28;20026;-52
2021/03/28 07:13:05;;;;;;;15.82;2.58;;;9.00;99.90;;;;;;5032333;28;20033;-50
2021/03/28 07:15:51;;;;;;;15.93;2.60;;;9.00;99.90;;;;;;5030818;28;20021;-52
2021/03/28 07:18:49;;;;;;;11.98;2.10;;;9.10;99.90;;;;;;5030650;28;20071;-55
2021/03/28 07:21:33;;;;;;;14.85;2.40;;;9.10;99.90;;;;;;5030563;28;20025;-54
2021/03/28 07:24:24;;;;;;;12.20;2.45;;;9.20;99.90;;;;;;5030960;28;20029;-54
2021/03/28 07:27:27;;;;;;;9.02;2.42;;;9.20;99.90;;;;;;5032105;28;20025;-52
2021/03/28 07:30:14;;;;;;;13.90;2.10;;;9.30;99.90;;;;;;5031385;28;20113;-51
2021/03/28 07:33:05;;;;;;;9.35;2.10;;;9.30;99.90;;;;;;5031917;28;20026;-50
2021/03/28 07:35:42;;;;;;;9.00;2.28;;;9.40;99.90;;;;;;4996611;28;20041;-50
2021/03/28 07:38:18;;;;;;;12.18;2.20;;;9.50;99.90;;;;;;5030412;28;20061;-51
2021/03/28 07:41:06;;;;;;;10.80;3.33;;;9.50;99.90;;;;;;5027550;28;20033;-50
2021/03/28 07:44:06;;;;;;;10.75;2.05;;;9.60;99.90;;;;;;5029814;28;20018;-53
2021/03/28 07:47:11;;;;;;;12.50;2.75;;;9.70;99.90;;;;;;5027458;28;20080;-50
2021/03/28 07:49:42;;;;;;;8.68;2.50;;;9.70;99.90;;;;;;5030272;28;20052;-50
2021/03/28 07:52:45;;;;;;;9.02;2.03;;;9.70;99.90;;;;;;5031006;28;20041;-51
2021/03/28 07:55:30;;;;;;;11.35;3.15;;;9.80;99.90;;;;;;5030398;28;20040;-54
2021/03/28 07:58:33;;;;;;;14.77;2.72;;;9.90;99.90;;;;;;5030894;28;20025;-50
2021/03/28 08:01:17;;;;;;;14.10;2.58;;;10.00;99.90;;;;;;5030654;28;20511;-50
2021/03/28 08:03:45;;;;;;;11.77;2.47;;;10.00;99.90;;;;;;5030044;28;20025;-52
2021/03/28 08:06:41;;;;;;;16.65;2.53;;;10.10;99.90;;;;;;5030653;28;20538;-53
2021/03/28 08:09:44;;;;;;;15.50;3.97;;;10.20;99.90;;;;;;5028817;28;20052;-52
2021/03/28 08:12:33;;;;;;;10.27;2.33;;;10.30;99.90;;;;;;5030194;28;20033;-51
2021/03/28 08:15:04;;;;;;;13.40;2.33;;;10.30;99.90;;;;;;5030251;28;20100;-49
2021/03/28 08:18:05;;;;;;;9.68;1.95;;;10.40;99.90;;;;;;5030450;28;20025;-52
2021/03/28 08:20:59;;;;;;;14.65;2.45;;;10.40;99.90;;;;;;5030221;28;20045;-49
2021/03/28 08:23:51;;;;;;;10.27;2.30;;;10.60;99.90;;;;;;5033569;28;20057;-51
2021/03/28 08:26:57;;;;;;;10.27;2.17;;;10.60;99.90;;;;;;5010580;28;20499;-53
2021/03/28 08:29:45;;;;;;;15.20;2.60;;;10.70;99.90;;;;;;5024228;28;20048;-49
2021/03/28 08:32:23;;;;;;;11.38;2.30;;;10.70;99.90;;;;;;5029347;28;20041;-50
2021/03/28 08:35:16;;;;;;;8.65;2.00;;;10.90;99.90;;;;;;5029742;28;20021;-50
2021/03/28 08:38:19;;;;;;;10.10;2.40;;;11.00;99.90;;;;;;5025304;28;20116;-52
2021/03/28 08:41:17;;;;;;;8.77;2.30;;;11.00;99.90;;;;;;5030080;28;20037;-54
2021/03/28 08:44:06;;;;;;;8.18;2.30;;;11.10;99.90;;;;;;5029620;28;20036;-51
2021/03/28 08:47:16;;;;;;;9.35;2.42;;;11.20;99.90;;;;;;5019190;28;20034;-52
2021/03/28 08:50:13;;;;;;;7.53;2.28;;;11.30;99.90;;;;;;5027606;28;20044;-52
2021/03/28 08:52:51;;;;;;;11.13;2.13;;;11.40;99.90;;;;;;5027953;28;20060;-51
2021/03/28 08:55:29;;;;;;;10.10;2.15;;;11.50;99.90;;;;;;5029565;28;20048;-53
2021/03/28 08:58:03;;;;;;;13.13;2.35;;;11.70;99.90;;;;;;5030777;28;20072;-52
2021/03/28 09:00:34;;;;;;;8.77;2.33;;;11.90;99.90;;;;;;5028748;28;20022;-49
2021/03/28 09:03:11;;;;;;;8.52;1.85;;;12.20;99.90;;;;;;5029390;28;20499;-49
2021/03/28 09:05:43;;;;;;;13.80;2.92;;;12.30;99.90;;;;;;5022527;28;20044;-54
2021/03/28 09:08:19;;;;;;;14.38;2.55;;;12.30;99.90;;;;;;5026462;28;20026;-52
2021/03/28 09:11:22;;;;;;;10.48;2.33;;;12.30;99.90;;;;;;5027596;28;20041;-50
2021/03/28 09:14:10;;;;;;;13.25;2.40;;;12.30;99.90;;;;;;5024605;28;20033;-52
2021/03/28 09:17:24;;;;;;;10.73;2.38;;;12.20;99.90;;;;;;5027814;28;20029;-49
2021/03/28 09:20:24;;;;;;;13.40;2.80;;;12.30;99.90;;;;;;4977117;28;20030;-51
2021/03/28 09:23:14;;;;;;;15.02;3.65;;;12.30;99.90;;;;;;5017894;28;20403;-54
2021/03/28 09:25:43;;;;;;;11.32;2.78;;;12.30;99.90;;;;;;5025515;28;20032;-52
2021/03/28 09:28:30;;;;;;;13.18;2.00;;;12.30;99.90;;;;;;5026925;28;20033;-50
2021/03/28 09:31:11;;;;;;;14.77;1.95;;;12.30;99.90;;;;;;5028758;28;20049;-52
2021/03/28 09:34:05;;;;;;;8.75;2.40;;;12.40;99.90;;;;;;5029384;28;20105;-53
2021/03/28 09:36:42;;;;;;;4.32;2.13;;;12.40;99.90;;;;;;5018661;28;20045;-50
2021/03/28 09:39:15;;;;;;;10.40;2.08;;;12.40;99.90;;;;;;5031778;28;20033;-54
2021/03/28 09:42:02;;;;;;;8.27;2.63;;;12.50;99.90;;;;;;5030584;28;20033;-54
2021/03/28 09:44:37;;;;;;;10.98;2.20;;;12.50;99.90;;;;;;5030612;28;20027;-51
2021/03/28 09:47:08;;;;;;;14.38;2.45;;;12.50;99.90;;;;;;5028320;28;20472;-53
2021/03/28 09:49:39;;;;;;;13.20;2.38;;;12.60;99.90;;;;;;5032160;28;20025;-53
2021/03/28 09:52:17;;;;;;;12.57;1.83;;;12.70;99.90;;;;;;5031537;28;20033;-54
2021/03/28 09:55:02;;;;;;;8.23;1.73;;;13.00;99.90;;;;;;5028366;28;20028;-51
2021/03/28 09:58:11;;;;;;;10.20;1.50;;;13.20;99.90;;;;;;5026676;28;20088;-52
2021/03/28 10:01:01;;;;;;;7.50;1.50;;;13.40;99.90;;;;;;5027869;28;20036;-52
2021/03/28 10:04:01;;;;;;;16.15;2.20;;;13.40;99.90;;;;;;5027250;28;20057;-53
2021/03/28 10:06:29;;;;;;;9.75;2.20;;;13.50;99.90;;;;;;5029171;28;20044;-52
2021/03/28 10:09:16;;;;;;;11.82;2.10;;;13.60;99.90;;;;;;5031655;28;20536;-53
2021/03/28 10:12:00;;;;;;;6.78;1.25;;;13.60;99.90;;;;;;5029687;28;20033;-53
2021/03/28 10:14:54;;;;;;;14.98;3.10;;;13.80;99.90;;;;;;5031537;28;20376;-51
2021/03/28 10:17:55;;;;;;;12.98;1.85;;;14.00;99.90;;;;;;5030477;28;20029;-55
2021/03/28 10:20:28;;;;;;;12.68;1.98;;;14.10;99.90;;;;;;5028492;28;20091;-50
2021/03/28 10:23:05;;;;;;;14.35;1.60;;;14.00;99.90;;;;;;5027131;28;20029;-49
2021/03/28 10:25:40;;;;;;;6.80;2.05;;;13.80;99.90;;;;;;5027294;28;20025;-49
2021/03/28 10:28:36;;;;;;;10.30;2.00;;;14.00;99.90;;;;;;5029909;28;20079;-51
2021/03/28 10:31:21;;;;;;;9.20;1.52;;;14.10;99.90;;;;;;5027792;28;20029;-50
2021/03/28 10:34:15;;;;;;;7.20;1.92;;;14.40;99.90;;;;;;5029413;28;20040;-51
2021/03/28 10:37:08;;;;;;;9.00;1.75;;;14.30;99.90;;;;;;5028799;28;20136;-50
2021/03/28 10:39:52;;;;;;;6.63;1.42;;;14.00;99.90;;;;;;5027556;28;20104;-53
2021/03/28 10:42:45;;;;;;;11.15;2.28;;;14.30;99.90;;;;;;5031072;28;20037;-52
2021/03/28 10:45:11;;;;;;;5.00;1.63;;;14.30;99.90;;;;;;5031413;28;20422;-55
2021/03/28 10:48:13;;;;;;;8.32;1.40;;;14.20;99.90;;;;;;5026935;28;20104;-50
2021/03/28 10:50:48;;;;;;;9.38;1.73;;;14.00;99.90;;;;;;5026210;28;20022;-52
2021/03/28 10:53:51;;;;;;;11.35;2.13;;;13.90;99.90;;;;;;5029846;28;20017;-56
2021/03/28 10:56:23;;;;;;;10.13;1.90;;;14.00;99.90;;;;;;5030383;28;20033;-51
2021/03/28 10:59:07;;;;;;;7.65;1.40;;;14.60;99.90;;;;;;5029979;28;20088;-51
2021/03/28 11:01:58;;;;;;;8.93;2.00;;;15.10;99.90;;;;;;5029918;28;20831;-50
2021/03/28 11:04:48;;;;;;;7.40;1.33;;;15.40;99.90;;;;;;5030836;28;20517;-53
2021/03/28 11:07:20;;;;;;;7.32;1.35;;;15.20;99.90;;;;;;5026999;28;20122;-50
2021/03/28 11:10:27;;;;;;;4.72;1.33;;;14.90;99.90;;;;;;5028141;28;20556;-50
2021/03/28 11:13:09;;;;;;;8.85;1.27;;;14.80;99.90;;;;;;5029985;28;20042;-49
2021/03/28 11:15:47;;;;;;;3.72;1.08;;;14.90;99.90;;;;;;5026357;28;20048;-55
2021/03/28 11:18:41;;;;;;;6.78;1.42;;;15.10;99.90;;;;;;5026540;28;20499;-51
2021/03/28 11:21:28;;;;;;;6.70;1.30;;;15.40;99.90;;;;;;5026708;28;20042;-49
2021/03/28 11:24:21;;;;;;;5.80;1.40;;;15.50;99.90;;;;;;5028683;28;20041;-52
2021/03/28 11:26:47;;;;;;;11.27;2.22;;;15.70;99.90;;;;;;5027320;28;20078;-51
2021/03/28 11:29:46;;;;;;;7.65;1.58;;;15.70;99.90;;;;;;5026542;28;20037;-55
2021/03/28 11:32:48;;;;;;;13.57;1.75;;;15.70;99.90;;;;;;5025597;28;20045;-53
2021/03/28 11:35:23;;;;;;;8.60;1.63;;;15.90;99.90;;;;;;5026303;28;20025;-50
2021/03/28 11:38:12;;;;;;;4.63;1.40;;;16.30;99.90;;;;;;5023487;28;20458;-52
2021/03/28 11:40:39;;;;;;;7.88;1.35;;;16.60;99.90;;;;;;5019932;28;20029;-50
2021/03/28 11:43:08;;;;;;;6.60;2.05;;;16.20;99.90;;;;;;5021073;28;20030;-52
2021/03/28 11:45:36;;;;;;;9.98;1.65;;;16.00;99.90;;;;;;5022396;28;20156;-53
2021/03/28 11:48:06;;;;;;;6.85;1.40;;;16.20;99.90;;;;;;5028423;28;20071;-52
2021/03/28 11:50:39;;;;;;;5.32;1.33;;;16.40;99.90;;;;;;5027778;28;20026;-50
2021/03/28 11:53:23;;;;;;;8.93;1.48;;;16.10;99.90;;;;;;5029342;28;20029;-48
2021/03/28 11:55:53;;;;;;;11.13;1.98;;;16.20;99.90;;;;;;5024779;28;22136;-50
2021/03/28 11:58:52;;;;;;;9.98;1.50;;;16.30;99.90;;;;;;5021944;28;20057;-57
2021/03/28 12:01:58;;;;;;;7.15;1.63;;;16.40;99.90;;;;;;5019470;28;20033;-53
2021/03/28 12:04:31;;;;;;;;;;;16.30;99.90;;;;;;4981345;28;20052;-49
2021/03/28 12:07:30;;;;;;;9.38;2.00;;;16.20;99.90;;;;;;5024790;28;19963;-51
2021/03/28 12:09:59;;;;;;;7.13;1.60;;;16.70;99.90;;;;;;5024649;28;20045;-55
2021/03/28 12:12:39;;;;;;;11.48;1.70;;;17.00;99.90;;;;;;5026221;28;20057;-50
2021/03/28 12:15:42;;;;;;;10.15;1.95;;;17.00;99.90;;;;;;5026458;28;20021;-52
2021/03/28 12:18:23;;;;;;;7.25;2.05;;;16.80;99.90;;;;;;5025696;28;20466;-51
2021/03/28 12:21:07;;;;;;;7.25;1.52;;;17.00;99.90;;;;;;5027640;28;20053;-51
2021/03/28 12:23:32;;;;;;;8.85;2.17;;;17.10;99.90;;;;;;5026037;28;20440;-54
2021/03/28 12:26:11;;;;;;;9.57;1.88;;;17.20;99.90;;;;;;5027940;28;20026;-55
2021/03/28 12:28:46;;;;;;;5.18;1.42;;;17.10;99.90;;;;;;5028089;28;20558;-50
2021/03/28 12:31:29;;;;;;;4.93;1.65;;;17.00;99.90;;;;;;5022789;28;20075;-56
2021/03/28 12:34:18;;;;;;;6.05;1.48;;;17.30;99.90;;;;;;5026549;28;20033;-52
2021/03/28 12:37:05;;;;;;;6.93;1.27;;;17.30;99.90;;;;;;5019354;28;20120;-51
2021/03/28 12:39:32;;;;;;;7.90;1.60;;;17.30;99.90;;;;;;5026166;28;20040;-54
2021/03/28 12:42:03;;;;;;;7.10;1.48;;;17.60;99.90;;;;;;5026076;28;20064;-56
2021/03/28 12:44:36;;;;;;;9.05;2.42;;;17.50;99.90;;;;;;5025913;28;20025;-57
2021/03/28 12:47:16;;;;;;;7.90;1.85;;;17.00;99.90;;;;;;5024334;28;20022;-52
2021/03/28 12:49:44;;;;;;;7.20;2.20;;;16.90;99.90;;;;;;5027131;28;20057;-54
2021/03/28 12:52:20;;;;;;;9.43;1.90;;;17.00;99.90;;;;;;5027604;28;20037;-52
2021/03/28 12:54:54;;;;;;;16.67;2.58;;;17.00;99.90;;;;;;5024779;28;20092;-55
2021/03/28 12:57:43;;;;;;;13.95;2.40;;;17.10;99.90;;;;;;5021629;28;20033;-58
2021/03/28 13:00:33;;;;;;;7.60;1.60;;;17.40;99.90;;;;;;5024032;28;20029;-51
2021/03/28 13:03:09;;;;;;;6.25;1.58;;;17.10;99.90;;;;;;5024322;28;20118;-55
2021/03/28 13:05:46;;;;;;;7.22;1.50;;;17.10;99.90;;;;;;5021578;28;20032;-55
2021/03/28 13:08:17;;;;;;;6.15;1.85;;;17.10;99.90;;;;;;5017897;28;20037;-59
2021/03/28 13:10:44;;;;;;;9.55;1.23;;;17.30;99.90;;;;;;5022790;28;20392;-54
2021/03/28 13:13:20;;;;;;;6.22;1.35;;;17.30;99.90;;;;;;5019584;28;20033;-54
2021/03/28 13:15:56;;;;;;;8.68;1.88;;;17.20;99.90;;;;;;5024264;28;20029;-53
2021/03/28 13:18:22;;;;;;;5.38;1.35;;;17.00;99.90;;;;;;5022570;28;20427;-52
2021/03/28 13:21:38;;;;;;;8.98;1.70;;;17.00;99.90;;;;;;5026042;28;20025;-57
2021/03/28 13:24:18;;;;;;;5.00;1.20;;;17.20;99.90;;;;;;5024490;28;20041;-52
2021/03/28 13:27:07;;;;;;;7.75;1.85;;;17.40;99.90;;;;;;5009497;28;20029;-53
2021/03/28 13:29:40;;;;;;;9.38;2.10;;;16.80;99.90;;;;;;5025265;28;20026;-53
2021/03/28 13:32:41;;;;;;;12.88;2.08;;;17.10;99.90;;;;;;5028421;28;20441;-52
2021/03/28 13:35:26;;;;;;;11.93;1.60;;;17.10;99.90;;;;;;5022957;28;20483;-57
2021/03/28 13:37:54;;;;;;;8.95;1.90;;;17.20;99.90;;;;;;5018170;28;20076;-51
2021/03/28 13:40:25;;;;;;;11.90;2.22;;;17.30;99.90;;;;;;5018878;28;20029;-51
2021/03/28 13:43:01;;;;;;;10.18;2.30;;;17.20;99.90;;;;;;5025568;28;20168;-53
2021/03/28 13:45:37;;;;;;;10.85;1.77;;;17.30;99.90;;;;;;5025726;28;20053;-51
2021/03/28 13:48:09;;;;;;;6.15;1.73;;;17.30;99.90;;;;;;5028098;28;20113;-54
2021/03/28 13:50:47;;;;;;;8.15;2.00;;;17.50;99.90;;;;;;5026048;28;20204;-51
2021/03/28 13:53:26;;;;;;;6.53;1.80;;;17.40;99.90;;;;;;5025003;28;20037;-53
2021/03/28 13:56:19;;;;;;;6.63;1.50;;;17.30;99.90;;;;;;5025601;28;20030;-53
2021/03/28 13:58:46;;;;;;;8.20;1.95;;;17.10;99.90;;;;;;5025914;28;20447;-51
2021/03/28 14:01:34;;;;;;;4.65;1.50;;;17.10;99.90;;;;;;5023533;28;20371;-53
2021/03/28 14:04:32;;;;;;;7.35;1.58;;;17.20;99.90;;;;;;5027084;28;20047;-53
2021/03/28 14:07:02;;;;;;;10.90;2.35;;;16.90;99.90;;;;;;5027328;28;20033;-52
2021/03/28 14:09:32;;;;;;;7.70;1.98;;;16.90;99.90;;;;;;5025499;28;20029;-50
2021/03/28 14:12:00;;;;;;;7.82;1.85;;;16.70;99.90;;;;;;5027192;28;20041;-51
2021/03/28 14:14:37;;;;;;;6.22;2.28;;;16.70;99.90;;;;;;5025730;28;20060;-51
2021/03/28 14:17:21;;;;;;;8.35;2.13;;;16.60;99.90;;;;;;5026738;28;20037;-50
2021/03/28 14:19:47;;;;;;;9.60;2.20;;;16.60;99.90;;;;;;5025524;28;20030;-51
2021/03/28 14:22:16;;;;;;;9.70;2.05;;;16.60;99.90;;;;;;5019459;28;20029;-59